sensor_id;sensor_type;location;lat;lon;timestamp;pressure;altitude;pressure_sealevel;temperature;humidity
8061;BME280;4073;42.626;25.386;2023-03-11T00:01:23;95451.84;;;13.03;100.00
8061;BME280;4073;42.626;25.386;2023-03-11T00:03:49;95444.28;;;12.96;100.00
8061;BME280;4073;42.626;25.386;2023-03-11T00:06:15;95443.84;;;12.94;100.00
8061;BME280;4073;42.626;25.386;2023-03-11T00:08:40;95448.25;;;12.90;100.00
8061;BME280;4073;42.626;25.386;2023-03-11T00:11:06;95447.50;;;12.90;100.00
8061;BME280;4073;42.626;25.386;2023-03-11T00:13:32;95439.78;;;12.88;100.00
8061;BME280;4073;42.626;25.386;2023-03-11T00:15:59;95443.75;;;12.82;100.00
8061;BME280;4073;42.626;25.386;2023-03-11T00:18:26;95428.19;;;12.76;100.00
8061;BME280;4073;42.626;25.386;2023-03-11T00:20:53;95424.13;;;12.70;100.00
8061;BME280;4073;42.626;25.386;2023-03-11T00:23:19;95425.44;;;12.64;100.00
8061;BME280;4073;42.626;25.386;2023-03-11T00:25:45;95417.28;;;12.60;100.00
8061;BME280;4073;42.626;25.386;2023-03-11T00:28:12;95410.00;;;12.61;100.00
8061;BME280;4073;42.626;25.386;2023-03-11T00:30:39;95397.78;;;12.51;100.00
8061;BME280;4073;42.626;25.386;2023-03-11T00:33:05;95393.22;;;12.52;100.00
8061;BME280;4073;42.626;25.386;2023-03-11T00:35:32;95396.47;;;12.57;100.00
8061;BME280;4073;42.626;25.386;2023-03-11T00:38:01;95390.97;;;12.54;100.00
8061;BME280;4073;42.626;25.386;2023-03-11T00:40:28;95378.69;;;12.53;100.00
8061;BME280;4073;42.626;25.386;2023-03-11T00:42:55;95384.63;;;12.58;100.00
8061;BME280;4073;42.626;25.386;2023-03-11T00:45:20;95391.44;;;12.56;100.00
8061;BME280;4073;42.626;25.386;2023-03-11T00:47:46;95376.50;;;12.46;100.00
8061;BME280;4073;42.626;25.386;2023-03-11T00:50:19;95391.88;;;12.58;100.00
8061;BME280;4073;42.626;25.386;2023-03-11T00:52:46;95376.94;;;12.57;100.00
8061;BME280;4073;42.626;25.386;2023-03-11T00:55:14;95379.13;;;12.55;100.00
8061;BME280;4073;42.626;25.386;2023-03-11T00:57:41;95361.28;;;12.38;100.00
8061;BME280;4073;42.626;25.386;2023-03-11T01:00:07;95367.31;;;12.35;100.00
8061;BME280;4073;42.626;25.386;2023-03-11T01:02:36;95370.50;;;12.29;100.00
8061;BME280;4073;42.626;25.386;2023-03-11T01:05:02;95353.91;;;12.15;100.00
8061;BME280;4073;42.626;25.386;2023-03-11T01:07:27;95359.53;;;12.22;100.00
8061;BME280;4073;42.626;25.386;2023-03-11T01:09:53;95353.84;;;12.23;100.00
8061;BME280;4073;42.626;25.386;2023-03-11T01:12:18;95353.38;;;12.21;100.00
8061;BME280;4073;42.626;25.386;2023-03-11T01:14:44;95355.06;;;12.26;100.00
8061;BME280;4073;42.626;25.386;2023-03-11T01:17:09;95341.47;;;12.31;100.00
8061;BME280;4073;42.626;25.386;2023-03-11T01:19:35;95344.09;;;12.39;100.00
8061;BME280;4073;42.626;25.386;2023-03-11T01:22:00;95332.72;;;12.42;100.00
8061;BME280;4073;42.626;25.386;2023-03-11T01:24:25;95332.22;;;12.49;100.00
8061;BME280;4073;42.626;25.386;2023-03-11T01:26:51;95329.00;;;12.55;100.00
8061;BME280;4073;42.626;25.386;2023-03-11T01:29:16;95325.13;;;12.65;100.00
8061;BME280;4073;42.626;25.386;2023-03-11T01:31:42;95317.81;;;12.74;100.00
8061;BME280;4073;42.626;25.386;2023-03-11T01:34:07;95305.63;;;12.76;100.00
8061;BME280;4073;42.626;25.386;2023-03-11T01:36:33;95299.75;;;12.83;100.00
8061;BME280;4073;42.626;25.386;2023-03-11T01:38:58;95298.31;;;12.97;100.00
8061;BME280;4073;42.626;25.386;2023-03-11T01:41:23;95297.38;;;13.02;100.00
8061;BME280;4073;42.626;25.386;2023-03-11T01:43:52;95290.13;;;13.02;100.00
8061;BME280;4073;42.626;25.386;2023-03-11T01:46:32;95293.69;;;13.07;100.00
8061;BME280;4073;42.626;25.386;2023-03-11T01:49:00;95275.16;;;13.02;100.00
8061;BME280;4073;42.626;25.386;2023-03-11T01:51:37;95293.81;;;13.10;100.00
8061;BME280;4073;42.626;25.386;2023-03-11T01:54:10;95292.38;;;13.13;100.00
8061;BME280;4073;42.626;25.386;2023-03-11T01:56:37;95300.09;;;13.14;100.00
8061;BME280;4073;42.626;25.386;2023-03-11T01:59:05;95301.78;;;13.19;100.00
8061;BME280;4073;42.626;25.386;2023-03-11T02:01:31;95300.66;;;13.20;100.00
8061;BME280;4073;42.626;25.386;2023-03-11T02:03:56;95299.78;;;13.28;100.00
8061;BME280;4073;42.626;25.386;2023-03-11T02:06:23;95308.50;;;13.37;100.00
8061;BME280;4073;42.626;25.386;2023-03-11T02:08:49;95303.16;;;13.37;100.00
8061;BME280;4073;42.626;25.386;2023-03-11T02:11:21;95311.53;;;13.35;100.00
8061;BME280;4073;42.626;25.386;2023-03-11T02:13:50;95306.97;;;13.36;100.00
8061;BME280;4073;42.626;25.386;2023-03-11T02:16:16;95310.97;;;13.42;100.00
8061;BME280;4073;42.626;25.386;2023-03-11T02:18:42;95301.34;;;13.41;100.00
8061;BME280;4073;42.626;25.386;2023-03-11T02:21:27;95303.25;;;13.40;100.00
8061;BME280;4073;42.626;25.386;2023-03-11T02:27:05;95285.59;;;13.39;100.00
8061;BME280;4073;42.626;25.386;2023-03-11T02:29:32;95284.47;;;13.40;100.00
8061;BME280;4073;42.626;25.386;2023-03-11T02:31:59;95287.38;;;13.35;100.00
8061;BME280;4073;42.626;25.386;2023-03-11T02:34:34;95283.69;;;13.40;100.00
8061;BME280;4073;42.626;25.386;2023-03-11T02:37:02;95280.22;;;13.39;100.00
8061;BME280;4073;42.626;25.386;2023-03-11T02:39:34;95271.16;;;13.44;100.00
8061;BME280;4073;42.626;25.386;2023-03-11T02:42:05;95267.13;;;13.38;100.00
8061;BME280;4073;42.626;25.386;2023-03-11T02:44:32;95261.66;;;13.34;100.00
8061;BME280;4073;42.626;25.386;2023-03-11T02:46:59;95260.53;;;13.35;100.00
8061;BME280;4073;42.626;25.386;2023-03-11T02:49:24;95260.78;;;13.30;100.00
8061;BME280;4073;42.626;25.386;2023-03-11T02:51:50;95262.34;;;13.31;100.00
8061;BME280;4073;42.626;25.386;2023-03-11T02:54:16;95260.78;;;13.30;100.00
8061;BME280;4073;42.626;25.386;2023-03-11T02:56:42;95269.59;;;13.31;100.00
8061;BME280;4073;42.626;25.386;2023-03-11T02:59:07;95268.69;;;13.27;100.00
8061;BME280;4073;42.626;25.386;2023-03-11T03:01:32;95251.91;;;13.18;100.00
8061;BME280;4073;42.626;25.386;2023-03-11T03:03:58;95246.31;;;13.11;100.00
8061;BME280;4073;42.626;25.386;2023-03-11T03:06:23;95253.38;;;13.15;100.00
8061;BME280;4073;42.626;25.386;2023-03-11T03:08:49;95259.53;;;13.16;100.00
8061;BME280;4073;42.626;25.386;2023-03-11T03:11:14;95249.00;;;13.11;100.00
8061;BME280;4073;42.626;25.386;2023-03-11T03:13:40;95249.56;;;13.16;100.00
8061;BME280;4073;42.626;25.386;2023-03-11T03:16:05;95250.66;;;13.03;100.00
8061;BME280;4073;42.626;25.386;2023-03-11T03:18:31;95251.66;;;12.98;100.00
8061;BME280;4073;42.626;25.386;2023-03-11T03:20:56;95255.50;;;12.89;100.00
8061;BME280;4073;42.626;25.386;2023-03-11T03:23:22;95242.25;;;12.60;100.00
8061;BME280;4073;42.626;25.386;2023-03-11T03:25:47;95245.81;;;12.52;100.00
8061;BME280;4073;42.626;25.386;2023-03-11T03:28:13;95249.66;;;12.42;100.00
8061;BME280;4073;42.626;25.386;2023-03-11T03:30:39;95254.75;;;12.35;100.00
8061;BME280;4073;42.626;25.386;2023-03-11T03:33:05;95245.81;;;12.31;100.00
8061;BME280;4073;42.626;25.386;2023-03-11T03:35:32;95243.31;;;12.26;100.00
8061;BME280;4073;42.626;25.386;2023-03-11T03:37:58;95248.91;;;12.21;100.00
8061;BME280;4073;42.626;25.386;2023-03-11T03:40:25;95246.44;;;12.16;100.00
8061;BME280;4073;42.626;25.386;2023-03-11T03:42:50;95247.66;;;12.19;100.00
8061;BME280;4073;42.626;25.386;2023-03-11T03:45:16;95249.53;;;12.18;100.00
8061;BME280;4073;42.626;25.386;2023-03-11T03:47:41;95248.00;;;12.17;100.00
8061;BME280;4073;42.626;25.386;2023-03-11T03:50:09;95249.94;;;12.08;100.00
8061;BME280;4073;42.626;25.386;2023-03-11T03:52:35;95242.28;;;11.98;100.00
8061;BME280;4073;42.626;25.386;2023-03-11T03:55:02;95241.72;;;11.93;100.00
8061;BME280;4073;42.626;25.386;2023-03-11T03:57:28;95240.47;;;11.90;100.00
8061;BME280;4073;42.626;25.386;2023-03-11T03:59:53;95226.50;;;11.85;100.00
8061;BME280;4073;42.626;25.386;2023-03-11T04:02:19;95235.63;;;11.84;100.00
8061;BME280;4073;42.626;25.386;2023-03-11T04:04:44;95237.38;;;11.80;100.00
8061;BME280;4073;42.626;25.386;2023-03-11T04:07:09;95243.97;;;11.62;100.00
8061;BME280;4073;42.626;25.386;2023-03-11T04:09:41;95233.00;;;11.46;100.00
8061;BME280;4073;42.626;25.386;2023-03-11T04:12:07;95243.03;;;11.20;100.00
8061;BME280;4073;42.626;25.386;2023-03-11T04:14:36;95216.75;;;10.85;100.00
8061;BME280;4073;42.626;25.386;2023-03-11T04:17:02;95241.56;;;10.94;100.00
8061;BME280;4073;42.626;25.386;2023-03-11T04:19:27;95238.41;;;10.92;100.00
8061;BME280;4073;42.626;25.386;2023-03-11T04:21:52;95244.41;;;10.89;100.00
8061;BME280;4073;42.626;25.386;2023-03-11T04:24:18;95235.44;;;10.85;100.00
8061;BME280;4073;42.626;25.386;2023-03-11T04:26:43;95233.44;;;10.73;100.00
8061;BME280;4073;42.626;25.386;2023-03-11T04:29:09;95221.56;;;10.53;100.00
8061;BME280;4073;42.626;25.386;2023-03-11T04:31:35;95215.38;;;10.62;100.00
8061;BME280;4073;42.626;25.386;2023-03-11T04:34:00;95221.53;;;10.62;100.00
8061;BME280;4073;42.626;25.386;2023-03-11T04:36:26;95221.81;;;10.69;100.00
8061;BME280;4073;42.626;25.386;2023-03-11T04:38:51;95228.88;;;10.74;100.00
8061;BME280;4073;42.626;25.386;2023-03-11T04:41:17;95232.16;;;10.79;100.00
8061;BME280;4073;42.626;25.386;2023-03-11T04:43:42;95224.00;;;10.84;100.00
8061;BME280;4073;42.626;25.386;2023-03-11T04:46:07;95225.09;;;10.83;100.00
8061;BME280;4073;42.626;25.386;2023-03-11T04:48:33;95240.00;;;10.93;100.00
8061;BME280;4073;42.626;25.386;2023-03-11T04:50:58;95244.38;;;10.97;100.00
8061;BME280;4073;42.626;25.386;2023-03-11T04:53:24;95242.19;;;10.99;100.00
8061;BME280;4073;42.626;25.386;2023-03-11T04:55:49;95248.31;;;11.00;100.00
8061;BME280;4073;42.626;25.386;2023-03-11T04:58:16;95258.22;;;10.99;100.00
8061;BME280;4073;42.626;25.386;2023-03-11T05:00:42;95256.81;;;10.93;100.00
8061;BME280;4073;42.626;25.386;2023-03-11T05:03:07;95256.97;;;10.97;100.00
8061;BME280;4073;42.626;25.386;2023-03-11T05:05:32;95258.84;;;10.96;100.00
8061;BME280;4073;42.626;25.386;2023-03-11T05:07:59;95256.19;;;10.96;100.00
8061;BME280;4073;42.626;25.386;2023-03-11T05:10:24;95259.00;;;11.00;100.00
8061;BME280;4073;42.626;25.386;2023-03-11T05:12:50;95258.84;;;10.96;100.00
8061;BME280;4073;42.626;25.386;2023-03-11T05:15:16;95252.38;;;10.97;100.00
8061;BME280;4073;42.626;25.386;2023-03-11T05:17:42;95268.59;;;11.01;100.00
8061;BME280;4073;42.626;25.386;2023-03-11T05:20:08;95265.28;;;11.04;100.00
8061;BME280;4073;42.626;25.386;2023-03-11T05:22:34;95267.63;;;11.05;100.00
8061;BME280;4073;42.626;25.386;2023-03-11T05:25:00;95268.28;;;11.02;100.00
8061;BME280;4073;42.626;25.386;2023-03-11T05:27:26;95272.03;;;11.10;100.00
8061;BME280;4073;42.626;25.386;2023-03-11T05:29:51;95263.03;;;11.14;100.00
8061;BME280;4073;42.626;25.386;2023-03-11T05:32:16;95271.22;;;11.18;100.00
8061;BME280;4073;42.626;25.386;2023-03-11T05:34:44;95260.81;;;11.16;100.00
8061;BME280;4073;42.626;25.386;2023-03-11T05:37:10;95267.41;;;11.19;100.00
8061;BME280;4073;42.626;25.386;2023-03-11T05:39:36;95260.81;;;11.16;100.00
8061;BME280;4073;42.626;25.386;2023-03-11T05:42:03;95263.78;;;11.23;100.00
8061;BME280;4073;42.626;25.386;2023-03-11T05:44:29;95276.53;;;11.26;100.00
8061;BME280;4073;42.626;25.386;2023-03-11T05:46:55;95269.75;;;11.29;100.00
8061;BME280;4073;42.626;25.386;2023-03-11T05:49:20;95265.31;;;11.33;100.00
8061;BME280;4073;42.626;25.386;2023-03-11T05:51:46;95260.28;;;11.31;100.00
8061;BME280;4073;42.626;25.386;2023-03-11T05:54:11;95263.31;;;11.30;100.00
8061;BME280;4073;42.626;25.386;2023-03-11T05:56:40;95262.50;;;11.29;100.00
8061;BME280;4073;42.626;25.386;2023-03-11T05:59:07;95261.41;;;11.30;100.00
8061;BME280;4073;42.626;25.386;2023-03-11T06:01:32;95255.28;;;11.30;100.00
8061;BME280;4073;42.626;25.386;2023-03-11T06:03:59;95247.66;;;11.40;100.00
8061;BME280;4073;42.626;25.386;2023-03-11T06:06:24;95244.50;;;11.47;100.00
8061;BME280;4073;42.626;25.386;2023-03-11T06:08:50;95236.88;;;11.57;100.00
8061;BME280;4073;42.626;25.386;2023-03-11T06:11:16;95246.72;;;11.74;100.00
8061;BME280;4073;42.626;25.386;2023-03-11T06:13:42;95242.69;;;11.88;100.00
8061;BME280;4073;42.626;25.386;2023-03-11T06:16:08;95232.69;;;11.97;100.00
8061;BME280;4073;42.626;25.386;2023-03-11T06:18:33;95233.28;;;12.03;100.00
8061;BME280;4073;42.626;25.386;2023-03-11T06:21:00;95231.59;;;12.19;100.00
8061;BME280;4073;42.626;25.386;2023-03-11T06:23:26;95200.75;;;12.33;100.00
8061;BME280;4073;42.626;25.386;2023-03-11T06:26:00;95218.50;;;12.82;100.00
8061;BME280;4073;42.626;25.386;2023-03-11T06:28:26;95223.16;;;13.06;100.00
8061;BME280;4073;42.626;25.386;2023-03-11T06:30:52;95235.94;;;13.45;100.00
8061;BME280;4073;42.626;25.386;2023-03-11T06:33:24;95247.69;;;13.53;100.00
8061;BME280;4073;42.626;25.386;2023-03-11T06:35:57;95238.97;;;13.56;100.00
8061;BME280;4073;42.626;25.386;2023-03-11T06:38:22;95242.56;;;13.60;100.00
8061;BME280;4073;42.626;25.386;2023-03-11T06:40:48;95250.25;;;13.73;100.00
8061;BME280;4073;42.626;25.386;2023-03-11T06:43:13;95252.59;;;13.87;100.00
8061;BME280;4073;42.626;25.386;2023-03-11T06:45:39;95245.44;;;13.79;100.00
8061;BME280;4073;42.626;25.386;2023-03-11T06:48:04;95248.22;;;13.70;100.00
8061;BME280;4073;42.626;25.386;2023-03-11T06:50:30;95242.56;;;13.60;100.00
8061;BME280;4073;42.626;25.386;2023-03-11T06:52:56;95245.22;;;13.60;100.00
8061;BME280;4073;42.626;25.386;2023-03-11T06:55:21;95225.06;;;13.66;100.00
8061;BME280;4073;42.626;25.386;2023-03-11T06:57:47;95227.25;;;14.12;100.00
8061;BME280;4073;42.626;25.386;2023-03-11T07:00:13;95237.34;;;14.70;100.00
8061;BME280;4073;42.626;25.386;2023-03-11T07:02:38;95235.97;;;15.19;100.00
8061;BME280;4073;42.626;25.386;2023-03-11T07:05:04;95242.25;;;15.54;100.00
8061;BME280;4073;42.626;25.386;2023-03-11T07:07:31;95241.38;;;15.66;100.00
8061;BME280;4073;42.626;25.386;2023-03-11T07:09:56;95235.00;;;15.74;100.00
8061;BME280;4073;42.626;25.386;2023-03-11T07:12:22;95241.41;;;15.85;100.00
8061;BME280;4073;42.626;25.386;2023-03-11T07:14:54;95235.09;;;15.77;100.00
8061;BME280;4073;42.626;25.386;2023-03-11T07:17:20;95238.25;;;15.98;100.00
8061;BME280;4073;42.626;25.386;2023-03-11T07:19:45;95241.44;;;16.38;100.00
8061;BME280;4073;42.626;25.386;2023-03-11T07:22:11;95239.13;;;16.75;100.00
8061;BME280;4073;42.626;25.386;2023-03-11T07:24:37;95220.38;;;17.04;100.00
8061;BME280;4073;42.626;25.386;2023-03-11T07:27:02;95217.47;;;17.58;100.00
8061;BME280;4073;42.626;25.386;2023-03-11T07:29:28;95203.97;;;17.84;100.00
8061;BME280;4073;42.626;25.386;2023-03-11T07:31:53;95212.53;;;17.89;100.00
8061;BME280;4073;42.626;25.386;2023-03-11T07:34:18;95197.81;;;18.13;100.00
8061;BME280;4073;42.626;25.386;2023-03-11T07:36:44;95188.28;;;18.85;100.00
8061;BME280;4073;42.626;25.386;2023-03-11T07:39:13;95180.47;;;19.17;100.00
8061;BME280;4073;42.626;25.386;2023-03-11T07:41:39;95181.16;;;19.50;100.00
8061;BME280;4073;42.626;25.386;2023-03-11T07:44:05;95195.38;;;19.40;100.00
8061;BME280;4073;42.626;25.386;2023-03-11T07:46:31;95191.81;;;19.29;100.00
8061;BME280;4073;42.626;25.386;2023-03-11T07:48:57;95195.13;;;19.12;75.20
8061;BME280;4073;42.626;25.386;2023-03-11T07:51:27;95192.63;;;19.33;74.57
8061;BME280;4073;42.626;25.386;2023-03-11T07:53:55;95184.66;;;19.11;72.47
8061;BME280;4073;42.626;25.386;2023-03-11T07:56:22;95190.97;;;18.52;72.94
8061;BME280;4073;42.626;25.386;2023-03-11T07:58:48;95187.19;;;17.98;74.03
8061;BME280;4073;42.626;25.386;2023-03-11T08:01:19;95179.38;;;17.66;76.37
8061;BME280;4073;42.626;25.386;2023-03-11T08:03:47;95183.44;;;17.79;77.53
8061;BME280;4073;42.626;25.386;2023-03-11T08:06:18;95182.53;;;17.98;75.30
8061;BME280;4073;42.626;25.386;2023-03-11T08:08:45;95183.44;;;17.79;74.45
8061;BME280;4073;42.626;25.386;2023-03-11T08:11:11;95188.06;;;17.53;75.05
8061;BME280;4073;42.626;25.386;2023-03-11T08:13:42;95175.59;;;17.45;75.22
8061;BME280;4073;42.626;25.386;2023-03-11T08:16:10;95179.53;;;17.77;73.93
8061;BME280;4073;42.626;25.386;2023-03-11T08:18:36;95174.06;;;17.99;72.73
8061;BME280;4073;42.626;25.386;2023-03-11T08:21:07;95173.06;;;18.11;72.46
8061;BME280;4073;42.626;25.386;2023-03-11T08:23:34;95187.28;;;18.34;69.58
8061;BME280;4073;42.626;25.386;2023-03-11T08:26:07;95190.28;;;18.29;67.65
8061;BME280;4073;42.626;25.386;2023-03-11T08:28:33;95204.44;;;18.19;67.75
8061;BME280;4073;42.626;25.386;2023-03-11T08:31:00;95205.41;;;18.34;66.81
8061;BME280;4073;42.626;25.386;2023-03-11T08:33:26;95202.69;;;18.96;65.36
8061;BME280;4073;42.626;25.386;2023-03-11T08:35:52;95195.00;;;19.42;62.47
8061;BME280;4073;42.626;25.386;2023-03-11T08:38:17;95197.88;;;19.63;59.86
8061;BME280;4073;42.626;25.386;2023-03-11T08:40:42;95211.09;;;19.68;59.30
8061;BME280;4073;42.626;25.386;2023-03-11T08:43:12;95193.53;;;19.48;60.15
8061;BME280;4073;42.626;25.386;2023-03-11T08:45:39;95183.41;;;19.01;61.55
8061;BME280;4073;42.626;25.386;2023-03-11T08:48:05;95190.25;;;18.92;62.72
8061;BME280;4073;42.626;25.386;2023-03-11T08:50:30;95178.63;;;18.88;62.77
8061;BME280;4073;42.626;25.386;2023-03-11T08:52:55;95186.25;;;18.79;62.29
8061;BME280;4073;42.626;25.386;2023-03-11T08:55:24;95188.56;;;18.77;62.33
8061;BME280;4073;42.626;25.386;2023-03-11T08:57:52;95178.59;;;18.84;62.01
8061;BME280;4073;42.626;25.386;2023-03-11T09:00:18;95187.06;;;19.19;60.69
8061;BME280;4073;42.626;25.386;2023-03-11T09:02:44;95194.97;;;19.35;59.64
8061;BME280;4073;42.626;25.386;2023-03-11T09:05:09;95182.44;;;19.20;59.05
8061;BME280;4073;42.626;25.386;2023-03-11T09:07:35;95174.91;;;19.03;60.13
8061;BME280;4073;42.626;25.386;2023-03-11T09:10:01;95179.94;;;19.04;60.24
8061;BME280;4073;42.626;25.386;2023-03-11T09:12:26;95173.63;;;18.90;60.98
8061;BME280;4073;42.626;25.386;2023-03-11T09:14:52;95174.09;;;18.99;60.18
8061;BME280;4073;42.626;25.386;2023-03-11T09:17:19;95166.91;;;19.17;59.60
8061;BME280;4073;42.626;25.386;2023-03-11T09:19:44;95163.41;;;19.13;58.90
8061;BME280;4073;42.626;25.386;2023-03-11T09:22:10;95155.59;;;19.08;59.59
8061;BME280;4073;42.626;25.386;2023-03-11T09:24:36;95168.03;;;19.12;59.84
8061;BME280;4073;42.626;25.386;2023-03-11T09:27:02;95158.06;;;19.20;58.95
8061;BME280;4073;42.626;25.386;2023-03-11T09:29:28;95158.44;;;19.22;58.66
8061;BME280;4073;42.626;25.386;2023-03-11T09:31:54;95156.47;;;19.19;57.98
8061;BME280;4073;42.626;25.386;2023-03-11T09:34:19;95142.38;;;18.99;56.75
8061;BME280;4073;42.626;25.386;2023-03-11T09:36:45;95141.66;;;19.06;56.59
8061;BME280;4073;42.626;25.386;2023-03-11T09:39:11;95157.03;;;19.35;55.93
8061;BME280;4073;42.626;25.386;2023-03-11T09:41:53;95152.78;;;19.37;55.78
8061;BME280;4073;42.626;25.386;2023-03-11T09:55:56;95131.97;;;17.98;56.88
8061;BME280;4073;42.626;25.386;2023-03-11T10:00:53;95125.59;;;17.84;57.99
8061;BME280;4073;42.626;25.386;2023-03-11T10:03:26;95127.22;;;17.92;58.49
8061;BME280;4073;42.626;25.386;2023-03-11T10:05:57;95111.94;;;17.73;58.04
8061;BME280;4073;42.626;25.386;2023-03-11T10:14:07;95119.78;;;17.82;58.13
8061;BME280;4073;42.626;25.386;2023-03-11T10:17:05;95125.59;;;17.84;55.66
8061;BME280;4073;42.626;25.386;2023-03-11T10:27:27;95120.63;;;18.19;54.65
8061;BME280;4073;42.626;25.386;2023-03-11T10:32:37;95117.69;;;19.08;52.85
8061;BME280;4073;42.626;25.386;2023-03-11T10:37:46;95100.41;;;20.73;46.57
8061;BME280;4073;42.626;25.386;2023-03-11T10:40:27;95094.25;;;21.32;45.07
8061;BME280;4073;42.626;25.386;2023-03-11T10:42:56;95087.19;;;21.87;44.42
8061;BME280;4073;42.626;25.386;2023-03-11T10:45:22;95094.63;;;21.80;42.39
8061;BME280;4073;42.626;25.386;2023-03-11T10:47:49;95089.97;;;21.45;43.97
8061;BME280;4073;42.626;25.386;2023-03-11T10:50:17;95090.38;;;20.98;45.06
8061;BME280;4073;42.626;25.386;2023-03-11T10:53:02;95084.47;;;20.54;45.86
8061;BME280;4073;42.626;25.386;2023-03-11T10:55:28;95090.13;;;20.14;48.12
8061;BME280;4073;42.626;25.386;2023-03-11T10:58:11;95094.22;;;19.76;48.07
8061;BME280;4073;42.626;25.386;2023-03-11T11:00:37;95095.13;;;19.37;49.61
8061;BME280;4073;42.626;25.386;2023-03-11T11:03:02;95096.75;;;19.01;49.70
8061;BME280;4073;42.626;25.386;2023-03-11T11:05:32;95090.75;;;18.82;50.98
8061;BME280;4073;42.626;25.386;2023-03-11T11:08:13;95091.44;;;18.72;51.29
8061;BME280;4073;42.626;25.386;2023-03-11T11:10:57;95087.50;;;18.62;50.94
8061;BME280;4073;42.626;25.386;2023-03-11T11:13:26;95082.44;;;18.57;52.10
8061;BME280;4073;42.626;25.386;2023-03-11T11:16:28;95083.25;;;18.61;51.84
8061;BME280;4073;42.626;25.386;2023-03-11T11:18:50;95078.50;;;18.51;49.49
8061;BME280;4073;42.626;25.386;2023-03-11T11:21:36;95083.78;;;18.41;49.63
8061;BME280;4073;42.626;25.386;2023-03-11T11:26:30;95089.66;;;18.46;48.55
8061;BME280;4073;42.626;25.386;2023-03-11T11:31:41;95086.25;;;18.20;48.99
8061;BME280;4073;42.626;25.386;2023-03-11T11:34:27;95094.50;;;18.00;49.57
8061;BME280;4073;42.626;25.386;2023-03-11T11:36:55;95091.72;;;17.93;49.89
8061;BME280;4073;42.626;25.386;2023-03-11T11:39:24;95091.88;;;17.74;51.16
8061;BME280;4073;42.626;25.386;2023-03-11T11:41:51;95089.81;;;17.64;53.36
8061;BME280;4073;42.626;25.386;2023-03-11T11:44:20;95076.84;;;17.47;55.46
8061;BME280;4073;42.626;25.386;2023-03-11T11:46:50;95088.72;;;17.43;56.76
8061;BME280;4073;42.626;25.386;2023-03-11T11:49:30;95091.09;;;17.22;55.41
8061;BME280;4073;42.626;25.386;2023-03-11T11:54:51;95092.63;;;16.97;59.86
8061;BME280;4073;42.626;25.386;2023-03-11T11:57:19;95096.03;;;16.49;62.44
8061;BME280;4073;42.626;25.386;2023-03-11T11:59:46;95099.56;;;16.11;64.43
8061;BME280;4073;42.626;25.386;2023-03-11T12:04:52;95107.34;;;15.43;70.48
8061;BME280;4073;42.626;25.386;2023-03-11T12:15:27;95106.28;;;16.02;71.73
8061;BME280;4073;42.626;25.386;2023-03-11T12:17:59;95097.47;;;16.24;72.82
8061;BME280;4073;42.626;25.386;2023-03-11T12:20:36;95090.47;;;16.61;72.13
8061;BME280;4073;42.626;25.386;2023-03-11T12:23:14;95105.47;;;17.03;71.08
8061;BME280;4073;42.626;25.386;2023-03-11T12:31:02;95119.84;;;17.59;65.22
8061;BME280;4073;42.626;25.386;2023-03-11T12:33:57;95116.66;;;17.54;66.40
8061;BME280;4073;42.626;25.386;2023-03-11T12:36:45;95124.31;;;17.48;66.94
8061;BME280;4073;42.626;25.386;2023-03-11T12:39:28;95102.66;;;17.45;66.38
8061;BME280;4073;42.626;25.386;2023-03-11T12:44:36;95084.63;;;17.26;66.97
8061;BME280;4073;42.626;25.386;2023-03-11T12:47:16;95094.03;;;17.39;63.09
8061;BME280;4073;42.626;25.386;2023-03-11T12:49:47;95079.47;;;17.70;62.21
8061;BME280;4073;42.626;25.386;2023-03-11T12:57:34;95081.13;;;18.11;64.27
8061;BME280;4073;42.626;25.386;2023-03-11T13:04:04;95087.78;;;18.21;64.25
8061;BME280;4073;42.626;25.386;2023-03-11T13:07:28;95103.28;;;18.24;59.54
8061;BME280;4073;42.626;25.386;2023-03-11T13:12:49;95101.22;;;18.80;62.97
8061;BME280;4073;42.626;25.386;2023-03-11T13:34:03;95100.69;;;19.11;52.66
8061;BME280;4073;42.626;25.386;2023-03-11T13:39:52;95098.41;;;19.16;53.10
8061;BME280;4073;42.626;25.386;2023-03-11T13:42:39;95102.25;;;19.12;51.99
8061;BME280;4073;42.626;25.386;2023-03-11T13:45:14;95104.63;;;19.17;50.93
8061;BME280;4073;42.626;25.386;2023-03-11T13:47:44;95108.47;;;19.16;51.00
8061;BME280;4073;42.626;25.386;2023-03-11T13:50:22;95106.59;;;19.23;49.83
8061;BME280;4073;42.626;25.386;2023-03-11T13:52:51;95099.63;;;19.22;47.86
8061;BME280;4073;42.626;25.386;2023-03-11T13:57:53;95101.75;;;18.99;48.19
8061;BME280;4073;42.626;25.386;2023-03-11T14:00:30;95102.69;;;18.74;49.12
8061;BME280;4073;42.626;25.386;2023-03-11T14:02:58;95102.06;;;18.51;50.38
8061;BME280;4073;42.626;25.386;2023-03-11T14:05:35;95096.72;;;18.58;48.82
8061;BME280;4073;42.626;25.386;2023-03-11T14:08:31;95103.47;;;18.74;49.60
8061;BME280;4073;42.626;25.386;2023-03-11T14:13:43;95093.75;;;18.70;49.41
8061;BME280;4073;42.626;25.386;2023-03-11T14:18:44;95110.91;;;18.84;48.22
8061;BME280;4073;42.626;25.386;2023-03-11T14:21:15;95122.88;;;18.80;47.79
8061;BME280;4073;42.626;25.386;2023-03-11T14:23:45;95112.28;;;18.68;48.39
8061;BME280;4073;42.626;25.386;2023-03-11T14:26:22;95128.88;;;18.63;48.60
8061;BME280;4073;42.626;25.386;2023-03-11T14:28:51;95120.63;;;18.52;48.22
8061;BME280;4073;42.626;25.386;2023-03-11T14:31:29;95118.22;;;18.40;48.97
8061;BME280;4073;42.626;25.386;2023-03-11T14:34:04;95121.94;;;18.32;47.73
8061;BME280;4073;42.626;25.386;2023-03-11T14:36:50;95128.03;;;18.26;47.05
8061;BME280;4073;42.626;25.386;2023-03-11T14:39:37;95120.72;;;17.96;46.36
8061;BME280;4073;42.626;25.386;2023-03-11T14:42:35;95121.72;;;17.85;47.80
8061;BME280;4073;42.626;25.386;2023-03-11T14:47:33;95120.53;;;17.82;46.74
8061;BME280;4073;42.626;25.386;2023-03-11T14:50:03;95124.75;;;17.80;47.79
8061;BME280;4073;42.626;25.386;2023-03-11T14:52:42;95129.75;;;17.78;48.72
8061;BME280;4073;42.626;25.386;2023-03-11T14:55:16;95124.31;;;17.74;49.72
8061;BME280;4073;42.626;25.386;2023-03-11T14:57:46;95135.50;;;17.76;50.63
8061;BME280;4073;42.626;25.386;2023-03-11T15:00:35;95134.13;;;17.60;49.56